KLSV Airport (Nellis Afb) Information

FAA: LSV - ICAO: KLSV

KLSV Airport Location

State Nevada
County Clark
City Las Vegas
KLSV Airport is 7 miles northeast of Las Vegas, NV.
Latitude 36-14-10.3200N
Longitude 115-02-03.3200W
Elevation 1,869ft

KLSV Airport METARs

METAR KLSV 060658Z AUTO 00000KT 10SM CLR 14/M06 A3009 RMK AO2 SLP180 T01401063 $
Altimeter 30.09"
Temperature 14.0°C (57.2°F)
Wind 0° at 0KT
Clouds Skies are clear.
Visibility 10.0mi
Time observed: 2021-12-06T06:58:00Z

KLSV Airport Details

Status Operational
Activation November 1937
Ownership Military - Air Force
Usage Private
Chart LAS VEGAS
ATC on-site Yes
Beacon schedule sunset-sunrise
Beacon color clear green

KLSV Airport Contacts

Owner USAF
Owner address NELLIS AFB, LAS VEGAS, NV 89110
Owner phone N/A
Manager THOMAS DARROW
Manager address 5505 HETTINGER PLACE, FALLON, NV 89406
Manager phone 775-867-2042

KLSV Airport (Nellis Afb) Radio Frequencies

KLSV (Airport) Radio Frequencies

UNICOM N/A
Common traffic advisory frequency (CTAF) N/A